Time;durP1;ratioP1;P1;durP2;ratioP2;P2;SDS_P1;SDS_P2;PMS_P1;PMS_P2;Temp;Humidity;BMP_temperature;BMP_pressure;BME280_temperature;BME280_humidity;BME280_pressure;Samples;Min_cycle;Max_cycle;Signal;HPM_P1;HPM_P2
2021/03/24 00:01:58;;;;;;;20.52;10.82;;;;;;;6.52;68.66;98830.84;4983174;28;20212;-83
2021/03/24 00:04:24;;;;;;;18.85;11.25;;;;;;;6.44;68.78;98837.84;4987474;28;20227;-84
2021/03/24 00:06:50;;;;;;;20.57;11.77;;;;;;;6.52;68.70;98837.78;4987282;28;20217;-84
2021/03/24 00:09:21;;;;;;;17.73;10.90;;;;;;;6.59;68.56;98836.81;4983713;28;20267;-83
2021/03/24 00:11:47;;;;;;;18.20;10.93;;;;;;;6.52;69.31;98840.34;4985208;28;20311;-83
2021/03/24 00:14:13;;;;;;;15.93;10.43;;;;;;;6.57;68.91;98841.19;4982084;28;20216;-83
2021/03/24 00:16:40;;;;;;;17.88;11.60;;;;;;;6.60;68.66;98846.34;4981728;28;20286;-84
2021/03/24 00:19:06;;;;;;;20.13;12.23;;;;;;;6.59;68.46;98844.59;4981792;28;20209;-84
2021/03/24 00:21:32;;;;;;;20.55;12.63;;;;;;;6.60;68.68;98837.69;4984486;28;20220;-84
2021/03/24 00:23:58;;;;;;;20.63;11.43;;;;;;;6.54;68.77;98843.78;4980733;28;20275;-83
2021/03/24 00:26:24;;;;;;;19.80;11.13;;;;;;;6.50;69.02;98848.16;4985066;28;20642;-84
2021/03/24 00:28:52;;;;;;;20.50;10.83;;;;;;;6.53;68.75;98832.56;4987103;28;20223;-85
2021/03/24 00:31:18;;;;;;;15.70;10.57;;;;;;;6.53;69.08;98837.75;4984926;28;20216;-83
2021/03/24 00:33:45;;;;;;;18.60;11.00;;;;;;;6.52;68.94;98837.78;4984959;28;20881;-83
2021/03/24 00:36:12;;;;;;;18.95;11.45;;;;;;;6.36;69.18;98837.94;4979621;28;20755;-84
2021/03/24 00:38:38;;;;;;;17.15;10.73;;;;;;;6.27;69.89;98840.63;4980625;28;20213;-83
2021/03/24 00:41:05;;;;;;;18.27;11.05;;;;;;;6.32;69.34;98833.69;4984860;28;20271;-84
2021/03/24 00:43:31;;;;;;;17.87;11.17;;;;;;;6.39;69.53;98839.63;4981383;28;20277;-83
2021/03/24 00:45:57;;;;;;;16.50;11.05;;;;;;;6.47;68.79;98843.03;4988661;28;20219;-83
2021/03/24 00:48:25;;;;;;;18.53;10.53;;;;;;;6.54;68.67;98843.78;4984041;28;20217;-83
2021/03/24 00:50:52;;;;;;;15.32;10.68;;;;;;;6.52;68.59;98837.78;4987485;28;20215;-84
2021/03/24 00:53:18;;;;;;;22.80;12.23;;;;;;;6.48;68.85;98839.53;4983259;28;20299;-84
2021/03/24 00:55:46;;;;;;;19.77;11.05;;;;;;;6.54;68.84;98848.97;4980108;28;20208;-83
2021/03/24 00:58:12;;;;;;;17.60;11.33;;;;;;;6.59;69.05;98836.81;4983224;28;20216;-84
2021/03/24 01:00:39;;;;;;;19.70;11.38;;;;;;;6.65;69.03;98841.94;4985586;28;20226;-83
2021/03/24 01:03:06;;;;;;;19.55;11.23;;;;;;;6.56;69.27;98836.84;4985982;28;20243;-83
2021/03/24 01:05:32;;;;;;;19.58;10.93;;;;;;;6.51;69.39;98838.66;4984418;28;20286;-83
2021/03/24 01:08:02;;;;;;;20.98;12.48;;;;;;;6.57;68.79;98838.59;4987762;28;20217;-83
2021/03/24 01:10:31;;;;;;;20.55;11.65;;;;;;;6.62;69.08;98826.44;4981397;28;20219;-83
2021/03/24 01:12:57;;;;;;;21.98;12.63;;;;;;;6.62;68.74;98831.63;4983878;28;20247;-83
2021/03/24 01:15:25;;;;;;;18.67;11.93;;;;;;;6.50;69.17;98835.19;4979604;28;20204;-83
2021/03/24 01:17:52;;;;;;;20.98;11.98;;;;;;;6.48;68.75;98833.50;4984098;28;20222;-83
2021/03/24 01:20:19;;;;;;;16.67;11.05;;;;;;;6.42;69.30;98829.25;4981549;28;20847;-83
2021/03/24 01:22:45;;;;;;;21.00;11.00;;;;;;;6.37;69.49;98834.47;4982378;28;20792;-84
2021/03/24 01:25:12;;;;;;;18.88;11.70;;;;;;;6.33;69.29;98829.34;4980708;28;20244;-83
2021/03/24 01:27:38;;;;;;;15.30;10.43;;;;;;;6.37;69.40;98826.69;4978864;28;20776;-83
2021/03/24 01:30:06;;;;;;;18.17;10.77;;;;;;;6.30;69.54;98825.03;4979511;28;20213;-83
2021/03/24 01:32:32;;;;;;;21.17;11.37;;;;;;;6.25;69.35;98825.97;4982320;28;20260;-85
2021/03/24 01:34:58;;;;;;;19.15;11.77;;;;;;;6.31;69.63;98825.91;4982449;28;20215;-83
2021/03/24 01:37:24;;;;;;;19.20;11.87;;;;;;;6.28;69.51;98825.94;4981972;28;20236;-83
2021/03/24 01:39:51;;;;;;;14.48;10.70;;;;;;;6.17;69.83;98831.22;4982946;28;20215;-84
2021/03/24 01:42:18;;;;;;;20.10;12.33;;;;;;;6.25;69.85;98828.56;4982106;28;20241;-83
2021/03/24 01:45:05;;;;;;;19.07;12.13;;;;;;;6.27;69.51;98822.50;4982191;28;20242;-85
2021/03/24 01:47:31;;;;;;;18.60;11.67;;;;;;;6.36;69.67;98827.59;4981268;28;20226;-84
2021/03/24 01:49:57;;;;;;;19.67;12.30;;;;;;;6.44;69.14;98826.66;4983792;28;20220;-84
2021/03/24 01:52:24;;;;;;;18.33;12.00;;;;;;;6.48;69.31;98825.72;4976724;28;20892;-83
2021/03/24 01:54:51;;;;;;;18.83;10.40;;;;;;;6.33;70.06;98830.19;4980938;28;20260;-84
2021/03/24 01:57:22;;;;;;;17.37;10.77;;;;;;;6.33;69.46;98824.16;4979103;28;21170;-83
2021/03/24 01:59:49;;;;;;;18.40;11.63;;;;;;;6.37;69.55;98828.44;4979009;28;20236;-83
2021/03/24 02:02:16;;;;;;;16.50;10.77;;;;;;;6.35;69.67;98820.66;4981862;28;20224;-84
2021/03/24 02:04:42;;;;;;;17.37;11.40;;;;;;;6.30;69.96;98824.19;4978742;28;20665;-83
2021/03/24 02:07:12;;;;;;;20.43;10.43;;;;;;;6.31;70.00;98819.00;4979641;28;21128;-83
2021/03/24 02:09:43;;;;;;;17.42;10.82;;;;;;;6.28;69.73;98821.59;4982895;28;21027;-83
2021/03/24 02:12:12;;;;;;;15.70;10.57;;;;;;;6.21;70.20;98822.53;4979732;28;20739;-83
2021/03/24 02:14:42;;;;;;;16.90;10.90;;;;;;;6.18;70.28;98826.03;4981578;28;20292;-83
2021/03/24 02:17:09;;;;;;;16.45;9.98;;;;;;;6.19;70.27;98816.53;4984355;28;20238;-83
2021/03/24 02:19:50;;;;;;;15.20;10.73;;;;;;;6.21;70.15;98817.34;4984799;28;20269;-84
2021/03/24 02:22:19;;;;;;;17.90;10.87;;;;;;;6.27;70.20;98812.13;4985075;28;20734;-83
2021/03/24 02:24:49;;;;;;;18.02;11.15;;;;;;;6.34;69.97;98811.19;4979519;28;20266;-83
2021/03/24 02:27:19;;;;;;;19.70;11.95;;;;;;;6.41;69.75;98808.53;4982772;28;20681;-84
2021/03/24 02:29:50;;;;;;;22.60;12.10;;;;;;;6.39;69.72;98810.28;4981633;28;20227;-83
2021/03/24 02:32:17;;;;;;;16.48;10.52;;;;;;;6.29;70.31;98812.97;4988166;28;20828;-83
2021/03/24 02:34:45;;;;;;;18.45;11.10;;;;;;;6.22;70.33;98816.50;4982714;28;20217;-83
2021/03/24 02:37:12;;;;;;;16.70;11.57;;;;;;;6.20;70.18;98805.28;4978015;28;20213;-83
2021/03/24 02:39:40;;;;;;;21.83;11.80;;;;;;;6.20;69.89;98807.88;4978109;28;20240;-83
2021/03/24 02:42:08;;;;;;;17.52;11.00;;;;;;;6.25;70.12;98806.13;4978626;28;20215;-84
2021/03/24 02:44:35;;;;;;;19.48;11.90;;;;;;;6.21;69.96;98798.38;4983240;28;20228;-83
2021/03/24 02:47:03;;;;;;;21.00;11.52;;;;;;;6.30;70.12;98793.09;4983464;28;20208;-83
2021/03/24 02:49:30;;;;;;;18.85;12.30;;;;;;;6.32;69.77;98789.63;4978919;28;20207;-84
2021/03/24 02:51:56;;;;;;;18.90;12.50;;;;;;;6.25;69.49;98793.16;4982947;28;20297;-84
2021/03/24 02:54:24;;;;;;;21.33;13.00;;;;;;;5.93;70.93;98788.25;4980772;28;20224;-84
2021/03/24 02:56:50;;;;;;;19.70;12.23;;;;;;;6.01;70.79;98794.28;4983987;28;20211;-84
2021/03/24 02:59:17;;;;;;;20.50;11.57;;;;;;;5.85;71.76;98800.44;4984708;28;20288;-83
2021/03/24 03:01:49;;;;;;;18.35;11.45;;;;;;;5.92;71.09;98791.75;4981232;28;20217;-83
2021/03/24 03:04:18;;;;;;;18.88;11.13;;;;;;;6.01;70.90;98801.16;4980322;28;20235;-83
2021/03/24 03:06:45;;;;;;;17.00;11.45;;;;;;;5.94;71.47;98796.03;4984215;28;20804;-83
2021/03/24 03:09:20;;;;;;;17.83;10.80;;;;;;;6.01;70.89;98798.56;4981141;28;20226;-84
2021/03/24 03:11:51;;;;;;;21.17;12.05;;;;;;;5.96;71.04;98794.31;4985510;28;20238;-83
2021/03/24 03:14:21;;;;;;;20.10;11.80;;;;;;;6.01;70.86;98798.56;4983289;28;20208;-84
2021/03/24 03:16:52;;;;;;;18.93;11.93;;;;;;;6.10;70.99;98806.25;4982069;28;20216;-84
2021/03/24 03:19:21;;;;;;;18.50;11.55;;;;;;;6.14;70.73;98802.78;4984109;28;20854;-84
2021/03/24 03:21:51;;;;;;;18.80;11.43;;;;;;;6.12;71.15;98812.28;4987434;28;20207;-84
2021/03/24 03:24:19;;;;;;;19.73;12.60;;;;;;;6.15;70.43;98810.50;4982777;28;20721;-84
2021/03/24 03:26:46;;;;;;;20.95;12.57;;;;;;;6.20;70.63;98813.06;4987170;28;20227;-83
2021/03/24 03:29:14;;;;;;;18.27;11.83;;;;;;;6.16;70.50;98812.25;4987179;28;20228;-83
2021/03/24 03:31:42;;;;;;;20.85;12.10;;;;;;;6.23;70.64;98812.16;4985253;28;20292;-84
2021/03/24 03:34:12;;;;;;;19.15;12.07;;;;;;;6.29;70.78;98807.78;4989342;28;20235;-83
2021/03/24 03:36:41;;;;;;;20.92;11.77;;;;;;;6.16;70.95;98806.22;4985003;28;20209;-82
2021/03/24 03:39:14;;;;;;;16.33;10.87;;;;;;;6.20;70.56;98801.84;4983396;28;20209;-83
2021/03/24 03:41:40;;;;;;;19.45;11.57;;;;;;;6.16;71.03;98808.81;4982351;28;20907;-83
2021/03/24 03:44:07;;;;;;;22.33;11.77;;;;;;;6.21;70.71;98800.97;4983832;28;20223;-83
2021/03/24 03:46:37;;;;;;;18.80;12.00;;;;;;;6.14;70.58;98800.19;4986007;28;20218;-85
2021/03/24 03:49:03;;;;;;;21.10;13.20;;;;;;;6.02;70.79;98797.72;4983789;28;20223;-84
2021/03/24 03:51:40;;;;;;;16.95;10.15;;;;;;;5.62;73.82;98806.66;4987296;28;20965;-84
2021/03/24 03:54:12;;;;;;;17.90;10.63;;;;;;;5.42;74.58;98811.97;4983257;28;20715;-83
2021/03/24 03:56:43;;;;;;;17.33;11.63;;;;;;;5.60;73.21;98811.84;4986424;28;20938;-83
2021/03/24 03:59:12;;;;;;;18.47;11.77;;;;;;;5.73;72.81;98811.75;4981398;28;20210;-83
2021/03/24 04:01:40;;;;;;;18.50;12.43;;;;;;;5.86;72.46;98813.34;4983202;28;20387;-83
2021/03/24 04:04:11;;;;;;;20.63;12.68;;;;;;;5.96;72.18;98804.66;4983914;28;20248;-83
2021/03/24 04:06:42;;;;;;;25.47;12.97;;;;;;;5.98;71.28;98808.09;4980770;28;20688;-85
2021/03/24 04:09:09;;;;;;;20.23;11.88;;;;;;;5.97;71.83;98811.56;4983903;28;20215;-84
2021/03/24 04:11:41;;;;;;;22.30;13.37;;;;;;;5.94;72.15;98821.91;4986021;28;20302;-83
2021/03/24 04:14:07;;;;;;;17.17;11.30;;;;;;;5.88;72.47;98816.81;4982513;28;20816;-83
2021/03/24 04:16:33;;;;;;;19.70;11.93;;;;;;;5.96;72.11;98809.84;4982290;28;20212;-83
2021/03/24 04:19:01;;;;;;;20.10;11.80;;;;;;;5.95;71.99;98818.47;4980865;28;20207;-84
2021/03/24 04:21:29;;;;;;;17.47;11.70;;;;;;;5.97;72.01;98814.16;4977513;28;20230;-83
2021/03/24 04:24:02;;;;;;;18.60;11.47;;;;;;;6.03;71.97;98814.94;4981700;28;20244;-84
2021/03/24 04:26:33;;;;;;;21.63;12.43;;;;;;;6.08;72.04;98811.44;4983535;28;20212;-83
2021/03/24 04:29:04;;;;;;;20.77;12.40;;;;;;;6.16;71.78;98813.97;4985691;28;20208;-84
2021/03/24 04:31:31;;;;;;;21.13;12.73;;;;;;;6.25;71.53;98816.47;4984402;28;20226;-84
2021/03/24 04:33:57;;;;;;;21.73;13.00;;;;;;;6.24;71.00;98819.09;4986090;28;20294;-83
2021/03/24 04:36:26;;;;;;;22.63;13.68;;;;;;;6.16;70.98;98825.19;4979826;28;20827;-83
2021/03/24 04:38:55;;;;;;;19.40;10.80;;;;;;;5.88;73.09;98829.75;4980237;28;20239;-83
2021/03/24 04:41:25;;;;;;;18.92;11.35;;;;;;;5.89;72.52;98828.88;4988423;28;20243;-84
2021/03/24 04:43:57;;;;;;;19.30;11.70;;;;;;;5.98;72.16;98828.81;4983099;28;20310;-84
2021/03/24 04:46:26;;;;;;;22.33;13.35;;;;;;;6.02;72.13;98828.78;4981289;28;20303;-84
2021/03/24 04:48:54;;;;;;;18.80;11.73;;;;;;;5.91;72.72;98828.84;4985492;28;20634;-83
2021/03/24 04:51:22;;;;;;;20.92;11.90;;;;;;;5.98;72.44;98830.56;4983977;28;20212;-85
2021/03/24 04:53:53;;;;;;;20.53;13.07;;;;;;;6.05;72.27;98833.97;4984221;28;20244;-83
2021/03/24 04:56:19;;;;;;;22.20;12.53;;;;;;;6.09;72.28;98833.03;4981859;28;20216;-83
2021/03/24 04:58:52;;;;;;;20.77;11.90;;;;;;;5.91;72.75;98832.28;4979955;28;20806;-84
2021/03/24 05:01:23;;;;;;;21.10;12.70;;;;;;;6.00;72.27;98833.13;4985991;28;20213;-83
2021/03/24 05:03:53;;;;;;;22.43;13.30;;;;;;;6.07;72.22;98829.63;4983890;28;20240;-83
2021/03/24 05:06:24;;;;;;;21.45;13.80;;;;;;;6.08;71.94;98839.09;4981069;28;20224;-83
2021/03/24 05:08:50;;;;;;;19.77;12.63;;;;;;;6.10;72.26;98837.34;4981038;28;20213;-83
2021/03/24 05:11:23;;;;;;;20.87;12.73;;;;;;;5.94;73.01;98832.28;4986594;28;20266;-83
2021/03/24 05:13:58;;;;;;;26.60;16.17;;;;;;;5.75;73.91;98841.94;4979153;28;20236;-84
2021/03/24 05:16:28;;;;;;;22.67;13.13;;;;;;;5.82;73.12;98837.56;4980111;28;20300;-83
2021/03/24 05:18:56;;;;;;;20.17;12.73;;;;;;;5.89;72.97;98833.19;4979814;28;20235;-84
2021/03/24 05:21:29;;;;;;;19.97;12.03;;;;;;;5.90;72.93;98835.78;4978935;28;20253;-83
2021/03/24 05:23:57;;;;;;;21.00;13.30;;;;;;;5.67;74.19;98851.47;4981221;28;20237;-84
2021/03/24 05:26:27;;;;;;;24.17;13.00;;;;;;;5.79;73.19;98847.97;4982163;28;20697;-84
2021/03/24 05:28:54;;;;;;;19.67;12.40;;;;;;;5.86;73.03;98854.78;4987201;28;20636;-83
2021/03/24 05:31:22;;;;;;;18.17;11.48;;;;;;;5.92;72.96;98843.53;4987698;28;20223;-83
2021/03/24 05:33:51;;;;;;;21.55;12.73;;;;;;;6.01;72.93;98848.66;4981599;28;20247;-83
2021/03/24 05:36:20;;;;;;;22.17;13.00;;;;;;;6.08;72.55;98852.03;4984929;28;20722;-83
2021/03/24 05:38:47;;;;;;;21.53;12.27;;;;;;;5.80;74.24;98855.69;4979596;28;20215;-83
2021/03/24 05:41:28;;;;;;;18.33;12.83;;;;;;;5.64;75.27;98853.22;4982373;28;20216;-83
2021/03/24 05:44:31;;;;;;;21.27;13.30;;;;;;;5.80;73.87;98852.25;4981331;28;20239;-83
2021/03/24 05:47:20;;;;;;;19.95;12.73;;;;;;;5.88;73.74;98863.41;4901219;29;20214;-84
2021/03/24 05:49:50;;;;;;;22.53;12.53;;;;;;;5.73;74.39;98858.34;4976881;28;20216;-84
2021/03/24 05:52:32;;;;;;;22.55;13.63;;;;;;;5.84;73.85;98859.09;4980078;28;21021;-84
2021/03/24 05:55:08;;;;;;;24.23;14.65;;;;;;;5.94;73.66;98852.16;4984448;28;20277;-84
2021/03/24 05:57:48;;;;;;;23.43;13.23;;;;;;;5.85;74.71;98857.41;4984419;28;20262;-83
2021/03/24 06:00:28;;;;;;;20.37;12.40;;;;;;;5.76;75.35;98853.16;4982381;28;20215;-83
2021/03/24 06:03:09;;;;;;;22.70;13.07;;;;;;;5.90;73.30;98853.91;4970038;28;20831;-83
2021/03/24 06:05:42;;;;;;;23.90;13.50;;;;;;;5.90;73.91;98860.78;4981798;28;20223;-83
2021/03/24 06:08:53;;;;;;;21.52;12.60;;;;;;;5.86;74.83;98851.34;4984578;28;20247;-83
2021/03/24 06:11:32;;;;;;;22.13;13.00;;;;;;;5.96;73.42;98856.47;4980694;28;20755;-83
2021/03/24 06:14:30;;;;;;;23.73;13.73;;;;;;;6.10;73.42;98863.25;4980939;28;20244;-83
2021/03/24 06:17:33;;;;;;;20.10;12.87;;;;;;;6.07;73.85;98865.88;4967025;28;20223;-84
2021/03/24 06:20:09;;;;;;;20.07;12.80;;;;;;;6.12;73.17;98864.09;4982026;28;20273;-84
2021/03/24 06:22:45;;;;;;;21.17;13.48;;;;;;;6.17;73.11;98857.97;4983789;28;20227;-84
2021/03/24 06:25:30;;;;;;;23.13;13.02;;;;;;;6.27;73.03;98848.41;4983006;28;20227;-85
2021/03/24 06:28:06;;;;;;;20.63;13.40;;;;;;;6.26;73.59;98856.19;4980684;28;20236;-83
2021/03/24 06:30:38;;;;;;;21.63;14.10;;;;;;;6.32;72.96;98856.13;4989651;28;20212;-82
2021/03/24 06:33:40;;;;;;;21.17;13.90;;;;;;;6.34;73.06;98856.97;4983237;28;20328;-82
2021/03/24 06:36:40;;;;;;;25.95;14.88;;;;;;;6.35;72.75;98849.16;4983903;28;20211;-82
2021/03/24 06:39:25;;;;;;;26.38;13.65;;;;;;;6.41;73.09;98850.00;4986252;28;20201;-82
2021/03/24 06:42:10;;;;;;;27.13;14.40;;;;;;;6.50;72.67;98857.66;4987887;28;20293;-82
2021/03/24 06:44:57;;;;;;;23.65;14.45;;;;;;;6.56;72.56;98860.19;4984155;28;20224;-82
2021/03/24 06:47:31;;;;;;;28.48;16.60;;;;;;;6.62;71.88;98849.75;4989276;28;20208;-83
2021/03/24 06:50:31;;;;;;;25.38;14.82;;;;;;;6.69;71.70;98854.00;4988577;28;20208;-82
2021/03/24 06:53:30;;;;;;;24.02;15.38;;;;;;;6.78;72.07;98857.34;4971433;28;20524;-82
2021/03/24 06:56:23;;;;;;;24.13;14.93;;;;;;;6.83;71.16;98848.63;4960187;28;20294;-83
2021/03/24 06:59:24;;;;;;;27.30;15.18;;;;;;;6.87;71.18;98852.06;4990285;28;20224;-82
2021/03/24 07:01:57;;;;;;;27.05;15.00;;;;;;;6.89;70.26;98846.00;4988272;28;20279;-83
2021/03/24 07:04:55;;;;;;;27.73;15.55;;;;;;;6.98;69.88;98844.13;4986455;28;20243;-82
2021/03/24 07:07:44;;;;;;;23.95;14.65;;;;;;;7.04;69.19;98844.06;4993051;28;20215;-83
2021/03/24 07:10:18;;;;;;;25.75;15.45;;;;;;;7.11;68.16;98858.66;4983478;28;20221;-82
2021/03/24 07:13:01;;;;;;;26.33;15.88;;;;;;;7.10;66.98;98854.38;4985098;28;21241;-82
2021/03/24 07:15:31;;;;;;;30.98;15.55;;;;;;;7.15;66.68;98855.16;4988270;28;20689;-83
2021/03/24 07:18:08;;;;;;;29.70;16.50;;;;;;;7.21;66.69;98857.66;4986722;28;20223;-82
2021/03/24 07:20:47;;;;;;;27.17;15.20;;;;;;;7.17;63.99;98857.72;4988673;28;20216;-82
2021/03/24 07:23:48;;;;;;;29.27;16.88;;;;;;;7.24;66.03;98867.13;4987698;28;20239;-82
2021/03/24 07:26:18;;;;;;;25.92;15.77;;;;;;;7.25;65.49;98859.34;4988586;28;20717;-82
2021/03/24 07:28:54;;;;;;;29.05;15.90;;;;;;;7.21;62.05;98862.84;4986309;28;20216;-82
2021/03/24 07:31:44;;;;;;;27.58;16.02;;;;;;;7.28;63.04;98863.63;4988264;28;20227;-82
2021/03/24 07:34:25;;;;;;;27.65;16.40;;;;;;;7.33;62.63;98867.00;4972044;28;20273;-83
2021/03/24 07:37:24;;;;;;;28.88;15.27;;;;;;;7.38;62.44;98865.22;4984702;28;20231;-82
2021/03/24 07:40:03;;;;;;;28.05;16.08;;;;;;;7.43;61.77;98872.94;4984554;28;20205;-82
2021/03/24 07:42:44;;;;;;;27.70;15.82;;;;;;;7.55;62.23;98875.34;4987270;28;20287;-82
2021/03/24 07:45:22;;;;;;;25.80;15.48;;;;;;;7.66;62.19;98870.00;4986969;28;20230;-82
2021/03/24 07:48:08;;;;;;;25.80;15.13;;;;;;;7.76;62.06;98875.94;4985717;28;20224;-81
2021/03/24 07:50:36;;;;;;;27.33;15.10;;;;;;;7.86;61.30;98877.47;4980581;28;20223;-81
2021/03/24 07:53:18;;;;;;;25.73;15.15;;;;;;;7.77;58.68;98873.28;4990804;28;20734;-81
2021/03/24 07:55:48;;;;;;;28.58;14.35;;;;;;;7.63;59.91;98865.72;4986887;28;20212;-81
2021/03/24 07:58:35;;;;;;;26.77;14.80;;;;;;;7.83;61.16;98868.00;4984853;28;20215;-81
2021/03/24 08:01:09;;;;;;;26.58;14.98;;;;;;;7.88;60.23;98876.59;4985529;28;20242;-82
2021/03/24 08:03:45;;;;;;;28.48;15.45;;;;;;;7.96;60.23;98872.97;4985290;28;20244;-82
2021/03/24 08:06:28;;;;;;;25.40;15.02;;;;;;;8.02;59.56;98867.69;4988798;28;20297;-82
2021/03/24 08:09:11;;;;;;;31.33;16.63;;;;;;;8.06;60.26;98869.34;4987401;28;20276;-81
2021/03/24 08:11:41;;;;;;;28.83;15.95;;;;;;;8.18;60.57;98869.16;4989623;28;20219;-82
2021/03/24 08:14:14;;;;;;;26.88;15.48;;;;;;;8.26;60.01;98867.25;4991217;28;20250;-81
2021/03/24 08:16:51;;;;;;;25.80;15.07;;;;;;;8.32;59.82;98862.84;4986127;28;20730;-82
2021/03/24 08:19:38;;;;;;;22.65;14.68;;;;;;;8.45;59.19;98866.97;4984111;28;20218;-81
2021/03/24 08:22:16;;;;;;;21.55;12.93;;;;;;;8.57;59.05;98863.28;4982734;28;20250;-82
2021/03/24 08:24:52;;;;;;;24.35;14.05;;;;;;;8.56;56.07;98865.00;4983488;28;20298;-81
2021/03/24 08:27:23;;;;;;;24.83;14.65;;;;;;;8.52;57.39;98860.78;4985293;28;20230;-81
2021/03/24 08:29:55;;;;;;;22.42;13.68;;;;;;;8.62;56.71;98859.72;4985417;28;20267;-82
2021/03/24 08:33:03;;;;;;;24.42;13.77;;;;;;;8.54;56.17;98859.00;4982673;28;20237;-82
2021/03/24 08:35:42;;;;;;;19.67;12.70;;;;;;;8.65;56.01;98849.22;4986956;28;20306;-82
2021/03/24 08:38:36;;;;;;;24.50;14.30;;;;;;;8.74;57.15;98847.34;4985366;28;21168;-82
2021/03/24 08:41:49;;;;;;;24.20;13.80;;;;;;;8.57;54.63;98839.91;4973077;28;20224;-82
2021/03/24 08:44:22;;;;;;;20.73;11.50;;;;;;;8.67;56.13;98836.19;4921003;29;20735;-82
2021/03/24 08:46:54;;;;;;;25.80;14.27;;;;;;;8.86;56.74;98847.13;4925688;29;20222;-82
2021/03/24 08:49:24;;;;;;;25.50;14.32;;;;;;;9.00;56.40;98834.66;4967536;28;20228;-82
2021/03/24 08:52:05;;;;;;;23.50;12.60;;;;;;;8.87;54.94;98848.81;4984888;28;20296;-82
2021/03/24 08:54:59;;;;;;;18.83;8.88;;;;;;;8.87;54.70;98831.44;4981731;28;20227;-81
2021/03/24 08:57:40;;;;;;;21.05;10.95;;;;;;;8.91;55.37;98840.03;4948554;28;20221;-82
2021/03/24 09:00:17;;;;;;;20.60;11.65;;;;;;;8.80;54.55;98844.63;4983776;28;20223;-83
2021/03/24 09:02:54;;;;;;;22.02;12.02;;;;;;;8.89;54.78;98834.03;4983160;28;20244;-83
2021/03/24 09:05:28;;;;;;;23.17;12.13;;;;;;;8.93;54.68;98840.88;4988573;28;20236;-82
2021/03/24 09:08:13;;;;;;;21.85;12.93;;;;;;;9.05;55.08;98831.97;4985952;28;20217;-82
2021/03/24 09:10:48;;;;;;;22.35;13.48;;;;;;;9.13;54.90;98837.00;4986874;28;20215;-83
2021/03/24 09:13:21;;;;;;;21.67;13.65;;;;;;;9.33;55.46;98832.19;4984089;28;20250;-83
2021/03/24 09:16:18;;;;;;;24.90;14.27;;;;;;;9.44;54.54;98830.19;4987176;28;20212;-83
2021/03/24 09:18:48;;;;;;;24.73;12.77;;;;;;;9.27;53.85;98837.56;4983069;28;20230;-82
2021/03/24 09:21:16;;;;;;;22.15;13.27;;;;;;;9.28;54.25;98831.44;4984185;28;20220;-84
2021/03/24 09:24:23;;;;;;;23.98;14.25;;;;;;;9.57;53.98;98830.78;4979569;28;20259;-84
2021/03/24 09:27:28;;;;;;;20.77;12.98;;;;;;;9.81;54.34;98824.13;4985448;28;20651;-83
2021/03/24 09:30:31;;;;;;;20.65;12.13;;;;;;;9.96;53.18;98830.72;4988412;28;20306;-84
2021/03/24 09:33:12;;;;;;;23.63;13.85;;;;;;;9.97;51.80;98808.94;4983486;28;20318;-83
2021/03/24 09:35:44;;;;;;;20.92;12.48;;;;;;;10.06;52.43;98817.44;4984527;28;20217;-83
2021/03/24 09:38:17;;;;;;;20.38;12.70;;;;;;;10.18;52.96;98812.78;4982651;28;20307;-84
2021/03/24 09:40:47;;;;;;;19.92;12.20;;;;;;;10.38;52.78;98811.41;4980026;28;20275;-83
2021/03/24 09:43:21;;;;;;;22.55;12.18;;;;;;;10.51;52.41;98804.97;4984725;28;20244;-83
2021/03/24 09:45:55;;;;;;;23.73;12.77;;;;;;;10.77;52.12;98811.16;4981254;28;20754;-83
2021/03/24 09:48:23;;;;;;;20.80;12.57;;;;;;;10.93;52.83;98809.81;4983330;28;20212;-83
2021/03/24 09:51:00;;;;;;;18.85;12.18;;;;;;;11.11;52.28;98805.81;4979987;28;20255;-85
2021/03/24 09:53:28;;;;;;;19.55;12.18;;;;;;;11.11;51.47;98810.19;4982387;28;20270;-83
2021/03/24 09:56:03;;;;;;;18.73;11.48;;;;;;;11.17;49.78;98802.16;4977917;28;20209;-83
2021/03/24 09:58:52;;;;;;;19.23;12.15;;;;;;;10.95;49.91;98804.56;4982529;28;20212;-84
2021/03/24 10:01:35;;;;;;;19.75;12.07;;;;;;;10.91;49.06;98793.34;4980248;28;20220;-83
2021/03/24 10:04:11;;;;;;;22.30;13.15;;;;;;;11.14;51.50;98791.84;4981351;28;20236;-83
2021/03/24 10:06:45;;;;;;;19.95;12.52;;;;;;;11.24;51.38;98785.41;4986816;28;20212;-82
2021/03/24 10:09:18;;;;;;;21.30;13.00;;;;;;;11.22;50.01;98792.44;4983737;28;20215;-83
2021/03/24 10:11:49;;;;;;;19.13;13.15;;;;;;;11.51;50.15;98790.69;4980543;28;20232;-83
2021/03/24 10:14:23;;;;;;;18.20;10.82;;;;;;;11.57;48.43;98782.63;4981148;28;20292;-83
2021/03/24 10:16:59;;;;;;;20.90;12.50;;;;;;;11.43;48.95;98782.22;4986550;28;20294;-82
2021/03/24 10:19:32;;;;;;;18.60;11.68;;;;;;;11.66;49.39;98779.72;4986248;28;20220;-82
2021/03/24 10:22:03;;;;;;;19.50;12.45;;;;;;;11.85;49.92;98771.25;4982381;28;20694;-82
2021/03/24 10:24:35;;;;;;;21.40;13.25;;;;;;;12.09;49.25;98769.59;4981281;28;20612;-83
2021/03/24 10:27:05;;;;;;;19.05;11.80;;;;;;;12.29;49.38;98776.72;4982433;28;20212;-82
2021/03/24 10:29:38;;;;;;;17.50;9.70;;;;;;;11.89;48.34;98763.28;4978998;28;20215;-82
2021/03/24 10:32:07;;;;;;;18.95;12.35;;;;;;;12.07;49.57;98767.03;4979014;28;20705;-82
2021/03/24 10:34:45;;;;;;;18.85;11.35;;;;;;;12.24;47.91;98768.19;4980279;28;20220;-82
2021/03/24 10:37:18;;;;;;;20.10;12.45;;;;;;;12.19;47.51;98759.69;4984479;28;20251;-82
2021/03/24 10:39:48;;;;;;;12.32;5.50;;;;;;;12.04;47.32;98761.91;4985504;28;20604;-83
2021/03/24 10:42:19;;;;;;;11.35;6.13;;;;;;;11.93;47.86;98761.44;4981064;28;20219;-83
2021/03/24 10:44:50;;;;;;;18.00;9.85;;;;;;;11.82;47.75;98760.88;4981111;28;20322;-82
2021/03/24 10:47:21;;;;;;;18.45;12.02;;;;;;;11.90;47.75;98756.31;4981681;28;20213;-82
2021/03/24 10:50:03;;;;;;;21.45;12.77;;;;;;;12.10;47.83;98751.22;4981770;28;20219;-82
2021/03/24 10:52:37;;;;;;;16.95;11.07;;;;;;;12.49;47.63;98745.47;4981006;28;20232;-83
2021/03/24 10:55:10;;;;;;;18.10;11.38;;;;;;;12.58;46.51;98746.06;4982299;28;20220;-82
2021/03/24 10:57:52;;;;;;;14.88;8.23;;;;;;;12.16;47.00;98750.16;4976951;28;20223;-82
2021/03/24 11:00:25;;;;;;;18.58;11.77;;;;;;;12.54;46.82;98743.53;4982036;28;20705;-83
2021/03/24 11:03:01;;;;;;;18.25;11.38;;;;;;;12.77;47.00;98733.13;4979409;28;20244;-82
2021/03/24 11:05:31;;;;;;;16.60;10.77;;;;;;;12.90;46.52;98742.19;4984462;28;20344;-83
2021/03/24 11:08:04;;;;;;;19.52;11.73;;;;;;;13.20;46.21;98736.69;4982690;28;20221;-82
2021/03/24 11:10:38;;;;;;;11.80;6.15;;;;;;;12.92;44.54;98740.38;4978463;28;20217;-82
2021/03/24 11:13:11;;;;;;;15.93;10.90;;;;;;;13.22;45.08;98732.25;4983753;28;20248;-83
2021/03/24 11:15:52;;;;;;;20.75;12.27;;;;;;;12.91;44.41;98729.06;4984328;28;20274;-82
2021/03/24 11:18:22;;;;;;;17.13;11.48;;;;;;;13.25;45.39;98726.84;4985570;28;20669;-82
2021/03/24 11:20:53;;;;;;;13.52;6.78;;;;;;;13.04;44.78;98712.88;4985970;28;20219;-82
2021/03/24 11:23:22;;;;;;;10.90;5.03;;;;;;;12.67;45.36;98719.53;4982537;28;20243;-82
2021/03/24 11:25:52;;;;;;;16.23;11.18;;;;;;;13.04;44.32;98718.09;4984333;28;20760;-82
2021/03/24 11:28:26;;;;;;;17.95;11.02;;;;;;;13.47;44.86;98706.78;4983039;28;20224;-83
2021/03/24 11:31:01;;;;;;;17.83;10.25;;;;;;;13.28;44.23;98706.63;4989694;28;20223;-82
2021/03/24 11:33:33;;;;;;;12.88;7.13;;;;;;;13.49;44.28;98698.81;4982017;28;20236;-83
2021/03/24 11:36:03;;;;;;;13.40;6.68;;;;;;;13.21;44.20;98699.09;4987001;28;20221;-82
2021/03/24 11:38:39;;;;;;;16.05;10.65;;;;;;;13.72;44.00;98686.53;4986717;28;20220;-83
2021/03/24 11:41:08;;;;;;;17.83;12.15;;;;;;;13.52;44.03;98688.22;4990191;28;20292;-82
2021/03/24 11:43:36;;;;;;;12.80;7.15;;;;;;;13.57;43.71;98691.50;4981526;28;20243;-83
2021/03/24 11:46:27;;;;;;;9.18;5.50;;;;;;;13.49;43.94;98688.34;4984840;28;20244;-83
2021/03/24 11:49:17;;;;;;;16.70;11.27;;;;;;;13.90;43.16;98685.75;4981035;28;20273;-83
2021/03/24 11:51:56;;;;;;;18.58;10.48;;;;;;;13.76;43.25;98688.09;4972193;28;20219;-82
2021/03/24 11:54:29;;;;;;;17.25;10.60;;;;;;;13.91;43.21;98682.19;4982580;28;20240;-83
2021/03/24 11:57:05;;;;;;;15.10;11.10;;;;;;;14.35;42.92;98684.59;4986785;28;20807;-84